VBW weather

Bridgewater Air Park
Bridgewater, Virginia, United States

Public forecast

Using degrees Fahrenheit for public forecast. Weather courtesy of forecast.io.

Closest aviation weather report (METAR) to Bridgewater Air Park

Closest report is Shenandoah Valley Regional Airport, 6.9 nm (12.7 km) SSE. Retrieved 2020/08/08 00:35 UTC (0 seconds ago):

KSHD 080035Z AUTO 26004KT 10SM VCTS CLR 20/20 A3014 RMK AO2 LTG DSNT SW AND W T02030196

Closest aviation forecast (TAF) to Bridgewater Air Park

Closest forecast is Charlottesville Albemarle Airport, 27.6 nm (51.1 km) ESE. Retrieved 2020-08-08 00:42 UTC (0 seconds ago):

TAF KCHO 072340Z 0800/0824 00000KT P6SM BKN200 FM080700 00000KT 4SM BR BKN140 FM081000 00000KT 2SM BR BKN015 FM081200 00000KT 4SM BR BKN025 FM081400 00000KT P6SM SCT130 FM081700 VRB03KT P6SM BKN045